Time;durP1;ratioP1;P1;durP2;ratioP2;P2;SDS_P1;SDS_P2;PMS_P1;PMS_P2;Temp;Humidity;BMP_temperature;BMP_pressure;BME280_temperature;BME280_humidity;BME280_pressure;Samples;Min_cycle;Max_cycle;Signal;HPM_P1;HPM_P2
2023/07/03 00:01:07;;;;;;;9.55;2.38;;;;;;;16.01;56.66;100911.63;5029621;28;20018;-90
2023/07/03 00:03:33;;;;;;;9.10;2.40;;;;;;;15.99;56.54;100921.34;5030085;28;20044;-87
2023/07/03 00:05:58;;;;;;;7.60;2.03;;;;;;;15.98;56.88;100909.97;5028169;28;20025;-90
2023/07/03 00:08:23;;;;;;;7.97;2.28;;;;;;;15.97;56.80;100908.28;5028750;28;20029;-90
2023/07/03 00:10:48;;;;;;;8.70;2.30;;;;;;;15.96;56.79;100921.47;5028445;28;20029;-91
2023/07/03 00:13:14;;;;;;;7.25;2.20;;;;;;;15.93;57.07;100902.34;5008969;28;20034;-91
2023/07/03 00:15:39;;;;;;;5.13;1.90;;;;;;;15.91;56.75;100904.19;5028233;28;20437;-90
2023/07/03 00:18:05;;;;;;;7.32;2.30;;;;;;;15.88;57.08;100909.59;5026152;28;20036;-90
2023/07/03 00:20:30;;;;;;;8.43;2.40;;;;;;;15.85;57.33;100901.84;5028395;28;20013;-90
2023/07/03 00:22:55;;;;;;;8.63;2.08;;;;;;;15.84;56.99;100908.00;5028857;28;20468;-91
2023/07/03 00:25:22;;;;;;;6.30;2.10;;;;;;;15.84;57.21;100904.50;5027513;28;20021;-89
2023/07/03 00:27:48;;;;;;;8.52;2.40;;;;;;;15.80;57.42;100905.59;5028664;28;20022;-90
2023/07/03 00:30:14;;;;;;;8.60;2.30;;;;;;;15.78;57.64;100895.16;5041926;28;20097;-90
2023/07/03 00:32:40;;;;;;;7.85;2.30;;;;;;;15.76;57.65;100899.63;5051984;28;20048;-89
2023/07/03 00:35:06;;;;;;;8.43;2.40;;;;;;;15.74;57.44;100896.22;5030391;28;20033;-90
2023/07/03 00:37:32;;;;;;;9.43;1.95;;;;;;;15.70;58.13;100900.75;5028862;28;20104;-90
2023/07/03 00:39:58;;;;;;;7.38;2.38;;;;;;;15.69;57.81;100893.81;5029345;28;20109;-90
2023/07/03 00:42:28;;;;;;;10.25;2.50;;;;;;;15.66;58.26;100901.81;5029354;28;20033;-91
2023/07/03 00:44:54;;;;;;;7.95;2.35;;;;;;;15.66;58.40;100896.56;5027919;28;20084;-91
2023/07/03 00:47:19;;;;;;;7.70;2.40;;;;;;;15.62;58.20;100898.50;5027144;28;20034;-91
2023/07/03 00:49:44;;;;;;;9.15;2.35;;;;;;;15.60;58.60;100907.38;5026675;28;20053;-91
2023/07/03 00:52:11;;;;;;;9.35;2.00;;;;;;;15.57;58.61;100904.88;5029585;28;20032;-90
2023/07/03 00:54:37;;;;;;;8.23;2.15;;;;;;;15.56;58.91;100903.16;5030112;28;20029;-90
2023/07/03 00:57:03;;;;;;;10.18;2.42;;;;;;;15.53;59.09;100896.31;5030754;28;20032;-90
2023/07/03 00:59:28;;;;;;;9.95;2.35;;;;;;;15.54;59.17;100897.97;5025558;28;20112;-91
2023/07/03 01:02:03;;;;;;;9.38;2.38;;;;;;;15.54;59.42;100899.75;5012335;28;20413;-90
2023/07/03 01:04:51;;;;;;;8.30;2.15;;;;;;;15.52;59.42;100897.22;5029755;28;20469;-90
2023/07/03 01:07:22;;;;;;;8.98;2.55;;;;;;;15.51;59.35;100894.66;5030370;28;20417;-90
2023/07/03 01:09:56;;;;;;;9.40;2.30;;;;;;;15.49;59.52;100889.50;5029764;28;20032;-89
2023/07/03 01:12:25;;;;;;;9.23;2.50;;;;;;;15.47;59.93;100888.72;5030992;28;20189;-91
2023/07/03 01:14:53;;;;;;;9.93;2.17;;;;;;;15.46;60.01;100889.63;5027361;28;20543;-90
2023/07/03 01:17:19;;;;;;;7.25;1.98;;;;;;;15.42;60.19;100888.94;5030725;28;20129;-89
2023/07/03 01:19:47;;;;;;;8.88;2.20;;;;;;;15.41;59.89;100884.59;5026700;28;20034;-90
2023/07/03 01:22:18;;;;;;;7.80;2.20;;;;;;;15.40;60.11;100884.66;5028556;28;20091;-90
2023/07/03 01:24:49;;;;;;;7.90;2.13;;;;;;;15.38;60.34;100889.09;5027751;28;20492;-89
2023/07/03 01:27:18;;;;;;;6.63;2.25;;;;;;;15.35;60.53;100886.66;5028695;28;20111;-90
2023/07/03 01:29:46;;;;;;;7.88;2.15;;;;;;;15.35;60.45;100897.13;5026632;28;20045;-90
2023/07/03 01:32:14;;;;;;;8.18;2.10;;;;;;;15.33;61.03;100894.56;5028170;28;20104;-91
2023/07/03 01:34:43;;;;;;;7.05;2.40;;;;;;;15.32;60.93;100890.25;5026657;28;20124;-90
2023/07/03 01:37:10;;;;;;;6.85;2.08;;;;;;;15.31;61.13;100899.03;5027327;28;20036;-90
2023/07/03 01:39:36;;;;;;;8.45;2.10;;;;;;;15.30;61.16;100887.69;5026546;28;21619;-90
2023/07/03 01:42:04;;;;;;;8.68;2.15;;;;;;;15.30;61.15;100889.47;5029194;28;20025;-90
2023/07/03 01:44:29;;;;;;;10.60;2.90;;;;;;;15.28;61.59;100883.47;5032492;28;20025;-90
2023/07/03 01:47:03;;;;;;;7.60;2.08;;;;;;;15.28;60.99;100889.53;5033894;28;20079;-91
2023/07/03 01:49:28;;;;;;;13.32;2.60;;;;;;;15.28;61.78;100891.31;5030071;28;20071;-90
2023/07/03 01:52:09;;;;;;;9.52;2.60;;;;;;;15.26;61.51;100865.16;5030077;28;20468;-91
2023/07/03 01:54:46;;;;;;;8.70;2.20;;;;;;;15.24;61.74;100881.88;5029488;28;20408;-89
2023/07/03 01:57:31;;;;;;;8.43;2.30;;;;;;;15.20;62.27;100880.31;5031667;28;20144;-90
2023/07/03 02:00:00;;;;;;;11.25;2.05;;;;;;;15.19;62.23;100889.97;5028558;28;20043;-88
2023/07/03 02:02:29;;;;;;;9.02;2.03;;;;;;;15.15;62.61;100886.59;5031224;28;20449;-90
2023/07/03 02:05:05;;;;;;;10.48;2.50;;;;;;;15.13;62.71;100884.97;5032024;28;20048;-90
2023/07/03 02:07:31;;;;;;;9.32;2.20;;;;;;;15.12;63.12;100888.53;5029578;28;20423;-90
2023/07/03 02:09:57;;;;;;;8.43;2.08;;;;;;;15.11;63.51;100881.56;5030445;28;20021;-89
2023/07/03 02:12:22;;;;;;;10.18;2.17;;;;;;;15.12;63.23;100883.28;5029762;28;20071;-89
2023/07/03 02:14:48;;;;;;;10.20;2.78;;;;;;;15.11;63.60;100882.44;5032339;28;20507;-90
2023/07/03 02:17:13;;;;;;;11.40;2.47;;;;;;;15.11;63.54;100881.56;5030402;28;20030;-91
2023/07/03 02:19:38;;;;;;;9.23;2.42;;;;;;;15.12;63.91;100883.28;5030196;28;20057;-90
2023/07/03 02:22:04;;;;;;;9.38;2.50;;;;;;;15.10;63.83;100879.88;5047440;28;20022;-89
2023/07/03 02:24:30;;;;;;;11.45;2.50;;;;;;;15.09;64.49;100870.31;5036495;28;20057;-91
2023/07/03 02:26:55;;;;;;;12.93;2.30;;;;;;;15.08;64.38;100871.22;5029154;28;20040;-90
2023/07/03 02:29:20;;;;;;;9.30;2.42;;;;;;;15.07;64.59;100874.75;5032391;28;20064;-90
2023/07/03 02:31:46;;;;;;;11.73;2.53;;;;;;;15.05;64.86;100872.22;5032385;28;20483;-89
2023/07/03 02:34:11;;;;;;;8.52;2.25;;;;;;;15.03;65.31;100869.66;5031693;28;20060;-90
2023/07/03 02:36:38;;;;;;;8.80;2.20;;;;;;;15.00;65.33;100875.06;5029993;28;20040;-90
2023/07/03 02:39:05;;;;;;;11.20;2.35;;;;;;;14.98;65.72;100865.53;5029954;28;20038;-90
2023/07/03 02:41:31;;;;;;;8.88;2.47;;;;;;;14.97;65.95;100863.84;5030154;28;20022;-91
2023/07/03 02:43:57;;;;;;;10.20;2.78;;;;;;;14.96;66.17;100862.13;5031372;28;20072;-88
2023/07/03 02:46:22;;;;;;;11.05;2.20;;;;;;;14.92;66.50;100860.59;5032659;28;20103;-91
2023/07/03 02:48:48;;;;;;;11.40;2.63;;;;;;;14.90;66.48;100857.19;5030122;28;20445;-91
2023/07/03 02:51:13;;;;;;;11.63;2.45;;;;;;;14.90;66.89;100857.19;5028725;28;20036;-90
2023/07/03 02:53:38;;;;;;;11.25;2.67;;;;;;;14.86;67.20;100854.69;5030638;28;20056;-89
2023/07/03 02:56:04;;;;;;;11.98;3.08;;;;;;;14.83;67.49;100856.59;5030545;28;20049;-91
2023/07/03 02:58:29;;;;;;;13.60;2.70;;;;;;;14.80;67.44;100843.63;5029269;28;20033;-90
2023/07/03 03:00:55;;;;;;;8.30;2.60;;;;;;;14.77;67.93;100841.13;5011322;28;20719;-90
2023/07/03 03:03:20;;;;;;;10.85;2.47;;;;;;;14.72;68.07;100842.19;5030118;28;20412;-91
2023/07/03 03:05:45;;;;;;;11.80;3.10;;;;;;;14.69;68.42;100851.94;5027471;28;20029;-90
2023/07/03 03:08:11;;;;;;;11.10;2.67;;;;;;;14.65;68.67;100847.72;5030226;28;20037;-90
2023/07/03 03:10:37;;;;;;;11.43;2.45;;;;;;;14.61;69.04;100847.00;5030475;28;20480;-91
2023/07/03 03:13:02;;;;;;;9.45;2.38;;;;;;;14.58;69.04;100836.66;5029468;28;20029;-90
2023/07/03 03:15:34;;;;;;;12.18;2.53;;;;;;;14.54;69.05;100841.19;5029648;28;20484;-90
2023/07/03 03:17:59;;;;;;;11.90;2.65;;;;;;;14.49;69.60;100843.13;5029557;28;20022;-91
2023/07/03 03:20:24;;;;;;;11.27;2.63;;;;;;;14.46;69.85;100839.81;5032194;28;20048;-90
2023/07/03 03:22:50;;;;;;;12.10;2.80;;;;;;;14.44;69.98;100839.00;5029488;28;20087;-90
2023/07/03 03:25:15;;;;;;;13.13;2.63;;;;;;;14.41;69.97;100843.47;5030383;28;20025;-90
2023/07/03 03:27:40;;;;;;;9.38;2.33;;;;;;;14.37;70.33;100839.25;5030541;28;20067;-93
2023/07/03 03:30:06;;;;;;;15.02;2.90;;;;;;;14.36;70.83;100845.41;5029398;28;20021;-90
2023/07/03 03:32:31;;;;;;;10.98;3.05;;;;;;;14.34;70.88;100844.66;5028326;28;20047;-90
2023/07/03 03:34:56;;;;;;;10.63;2.53;;;;;;;14.33;71.33;100853.41;5029516;28;20052;-91
2023/07/03 03:37:22;;;;;;;14.43;3.20;;;;;;;14.32;71.27;100843.84;5048528;28;20484;-90
2023/07/03 03:39:47;;;;;;;8.52;2.55;;;;;;;14.31;71.71;100844.78;5031174;28;20033;-90
2023/07/03 03:42:12;;;;;;;10.35;2.53;;;;;;;14.29;71.81;100841.38;5030002;28;20436;-89
2023/07/03 03:44:38;;;;;;;11.65;2.72;;;;;;;14.31;71.92;100841.28;5027642;28;20025;-89
2023/07/03 03:47:04;;;;;;;12.18;2.90;;;;;;;14.29;72.01;100833.50;5032284;28;20033;-88
2023/07/03 03:49:29;;;;;;;11.90;2.92;;;;;;;14.26;72.61;100836.25;5028438;28;20035;-89
2023/07/03 03:51:55;;;;;;;9.95;2.47;;;;;;;14.25;72.62;100850.25;5031589;28;20017;-89
2023/07/03 03:54:20;;;;;;;15.77;2.95;;;;;;;14.24;72.93;100845.94;5028186;28;20026;-89
2023/07/03 03:56:46;;;;;;;10.55;3.00;;;;;;;14.23;73.08;100839.00;5030052;28;20029;-90
2023/07/03 03:59:12;;;;;;;13.15;3.10;;;;;;;14.23;73.42;100849.44;5031595;28;20385;-90
2023/07/03 04:01:37;;;;;;;11.20;2.83;;;;;;;14.24;73.37;100848.53;5028795;28;20477;-89
2023/07/03 04:04:03;;;;;;;14.10;2.92;;;;;;;14.22;73.58;100839.91;5028895;28;20528;-90
2023/07/03 04:06:29;;;;;;;10.25;2.63;;;;;;;14.21;74.06;100844.28;5027364;28;20540;-90
2023/07/03 04:08:58;;;;;;;12.85;2.90;;;;;;;14.20;74.04;100845.22;5028712;28;20029;-90
2023/07/03 04:11:24;;;;;;;13.90;2.95;;;;;;;14.21;74.23;100848.66;5012890;28;20416;-90
2023/07/03 04:13:49;;;;;;;12.18;3.08;;;;;;;14.22;74.26;100850.38;5030015;28;20025;-90
2023/07/03 04:16:15;;;;;;;11.63;2.90;;;;;;;14.21;74.02;100859.13;5029574;28;20035;-91
2023/07/03 04:18:40;;;;;;;16.30;2.80;;;;;;;14.22;74.46;100852.97;5027863;28;20036;-89
2023/07/03 04:21:06;;;;;;;12.32;2.55;;;;;;;14.21;74.55;100852.16;5025341;28;20485;-91
2023/07/03 04:23:31;;;;;;;11.60;2.85;;;;;;;14.21;74.29;100854.75;5026482;28;20418;-87
2023/07/03 04:25:57;;;;;;;16.35;2.97;;;;;;;14.20;74.31;100847.81;5025544;28;20021;-90
2023/07/03 04:28:23;;;;;;;14.68;3.00;;;;;;;14.21;74.59;100853.91;5030123;28;20100;-89
2023/07/03 04:30:48;;;;;;;11.00;2.90;;;;;;;14.24;74.76;100848.53;5025819;28;20056;-90
2023/07/03 04:33:14;;;;;;;13.15;3.10;;;;;;;14.26;74.61;100852.78;5028032;28;20481;-89
2023/07/03 04:35:40;;;;;;;15.38;3.22;;;;;;;14.26;74.94;100854.56;5027252;28;20473;-91
2023/07/03 04:38:05;;;;;;;17.63;3.63;;;;;;;14.27;75.20;100848.41;5027429;28;20040;-91
2023/07/03 04:40:30;;;;;;;10.55;3.08;;;;;;;14.28;75.20;100850.13;5028250;28;20029;-91
2023/07/03 04:42:56;;;;;;;12.07;3.08;;;;;;;14.30;75.09;100857.91;5028206;28;20447;-91
2023/07/03 04:45:24;;;;;;;13.63;3.10;;;;;;;14.32;75.15;100861.31;5027767;28;20029;-90
2023/07/03 04:47:50;;;;;;;11.95;3.05;;;;;;;14.35;75.38;100861.19;5027995;28;20029;-90
2023/07/03 04:50:17;;;;;;;14.57;3.35;;;;;;;14.35;75.42;100856.78;5030986;28;20435;-91
2023/07/03 04:52:47;;;;;;;14.30;3.05;;;;;;;14.36;75.35;100863.72;5027966;28;20064;-92
2023/07/03 04:55:13;;;;;;;9.68;2.75;;;;;;;14.36;75.31;100868.97;5011267;28;20511;-91
2023/07/03 04:57:40;;;;;;;17.30;3.63;;;;;;;14.38;75.55;100884.63;5026482;28;20029;-90
2023/07/03 05:00:14;;;;;;;15.70;3.22;;;;;;;14.40;74.95;100881.00;5029594;28;20037;-89
2023/07/03 05:02:40;;;;;;;18.85;3.42;;;;;;;14.39;75.57;100879.31;5027051;28;20045;-90
2023/07/03 05:05:06;;;;;;;9.73;3.28;;;;;;;14.39;75.70;100881.94;5026850;28;20083;-91
2023/07/03 05:07:31;;;;;;;16.73;4.15;;;;;;;14.40;76.34;100881.00;5011400;28;20021;-88
2023/07/03 05:09:57;;;;;;;15.93;3.45;;;;;;;14.40;76.65;100878.41;5026297;28;20384;-90
2023/07/03 05:12:22;;;;;;;13.82;3.58;;;;;;;14.42;76.17;100887.03;5008108;28;20421;-90
2023/07/03 05:14:47;;;;;;;14.52;3.67;;;;;;;14.46;75.81;100897.41;5025784;28;20025;-89
2023/07/03 05:17:12;;;;;;;17.15;3.88;;;;;;;14.48;76.29;100892.94;5031585;28;20048;-89
2023/07/03 05:19:38;;;;;;;13.95;3.20;;;;;;;14.49;76.03;100884.19;5032609;28;20118;-90
2023/07/03 05:22:03;;;;;;;14.50;4.25;;;;;;;14.51;75.70;100887.59;5031397;28;20032;-88
2023/07/03 05:24:29;;;;;;;16.15;3.38;;;;;;;14.55;75.53;100899.63;5032199;28;20029;-87
2023/07/03 05:26:54;;;;;;;15.40;4.00;;;;;;;14.56;75.48;100893.47;5033459;28;20021;-89
2023/07/03 05:29:20;;;;;;;15.18;3.38;;;;;;;14.60;76.00;100896.84;5031471;28;20499;-89
2023/07/03 05:31:46;;;;;;;12.60;3.22;;;;;;;14.62;76.20;100906.31;5014242;28;20025;-89
2023/07/03 05:34:11;;;;;;;16.92;3.80;;;;;;;14.66;75.92;100901.78;5031291;28;20037;-90
2023/07/03 05:36:37;;;;;;;12.35;3.22;;;;;;;14.69;75.58;100897.31;5030453;28;20045;-90
2023/07/03 05:39:02;;;;;;;11.65;3.20;;;;;;;14.71;75.31;100903.31;5030055;28;20077;-89
2023/07/03 05:41:28;;;;;;;15.25;3.20;;;;;;;14.74;75.72;100898.88;5012090;28;20128;-89
2023/07/03 05:43:53;;;;;;;13.57;3.00;;;;;;;14.77;75.69;100909.22;5032585;28;20058;-88
2023/07/03 05:46:18;;;;;;;12.13;3.13;;;;;;;14.81;75.55;100908.19;5031759;28;20024;-89
2023/07/03 05:48:43;;;;;;;10.75;3.13;;;;;;;14.88;74.97;100912.22;5031515;28;20488;-91
2023/07/03 05:51:09;;;;;;;15.75;3.80;;;;;;;14.95;75.23;100908.44;5030418;28;20013;-90
2023/07/03 05:53:34;;;;;;;11.95;3.47;;;;;;;15.05;75.00;100913.28;5031806;28;20029;-90
2023/07/03 05:55:59;;;;;;;13.63;3.40;;;;;;;15.09;74.71;100904.38;5028031;28;20105;-90
2023/07/03 05:58:26;;;;;;;15.15;3.47;;;;;;;15.11;74.58;100907.78;5033560;28;20032;-94
2023/07/03 06:00:52;;;;;;;18.00;3.47;;;;;;;15.13;74.79;100904.16;5036299;28;20032;-95
2023/07/03 06:03:18;;;;;;;12.77;3.50;;;;;;;15.15;73.96;100914.59;5015565;28;20045;-94
2023/07/03 06:05:44;;;;;;;12.52;3.20;;;;;;;15.14;74.45;100913.72;5031747;28;20052;-96
2023/07/03 06:08:10;;;;;;;13.20;3.30;;;;;;;15.16;73.76;100913.69;5032259;28;20067;-91
2023/07/03 06:10:36;;;;;;;14.82;3.95;;;;;;;15.17;73.60;100920.63;5034346;28;20025;-95
2023/07/03 06:13:01;;;;;;;13.60;3.03;;;;;;;15.17;73.26;100923.25;5035278;28;20027;-95
2023/07/03 06:15:27;;;;;;;12.00;3.00;;;;;;;15.17;74.17;100923.25;5041548;28;20029;-94
2023/07/03 06:17:52;;;;;;;11.45;2.80;;;;;;;15.19;74.41;100926.66;5047017;28;20040;-92
2023/07/03 06:20:17;;;;;;;11.77;3.05;;;;;;;15.21;74.29;100924.78;5035676;28;20539;-93
2023/07/03 06:22:43;;;;;;;13.68;3.30;;;;;;;15.23;74.39;100924.75;5031423;28;20071;-94
2023/07/03 06:25:09;;;;;;;10.30;3.38;;;;;;;15.24;74.19;100922.03;5030502;28;20155;-87
2023/07/03 06:27:34;;;;;;;13.50;3.55;;;;;;;15.24;74.15;100929.91;5028094;28;20040;-88
2023/07/03 06:30:01;;;;;;;14.32;3.20;;;;;;;15.22;74.23;100926.50;5030861;28;20029;-87
2023/07/03 06:32:26;;;;;;;12.05;3.40;;;;;;;15.22;73.31;100931.72;5033246;28;20380;-92
2023/07/03 06:34:51;;;;;;;15.32;3.70;;;;;;;15.23;73.83;100936.06;5027174;28;20036;-93
2023/07/03 06:37:16;;;;;;;14.73;2.95;;;;;;;15.22;73.30;100936.13;5037995;28;20032;-87
2023/07/03 06:39:42;;;;;;;13.60;2.95;;;;;;;15.21;73.67;100930.03;5028410;28;20026;-92
2023/07/03 06:42:09;;;;;;;13.82;3.10;;;;;;;15.23;73.54;100930.81;5015642;28;20026;-90
2023/07/03 06:44:36;;;;;;;15.57;3.33;;;;;;;15.29;74.19;100927.06;5034536;28;20511;-83
2023/07/03 06:47:01;;;;;;;11.90;3.38;;;;;;;15.33;74.16;100915.53;5011341;28;20067;-90
2023/07/03 06:49:29;;;;;;;9.95;2.97;;;;;;;15.40;73.77;100923.97;5010536;28;20044;-93
2023/07/03 06:51:56;;;;;;;13.95;3.33;;;;;;;15.48;73.52;100927.94;5036609;28;20518;-93
2023/07/03 06:54:21;;;;;;;11.77;2.95;;;;;;;15.57;73.01;100923.22;5042538;28;20083;-92
2023/07/03 06:56:47;;;;;;;13.60;3.10;;;;;;;15.63;73.11;100918.56;5041813;28;20028;-94
2023/07/03 06:59:12;;;;;;;14.52;3.13;;;;;;;15.69;72.68;100916.59;5042035;28;20025;-94
2023/07/03 07:01:39;;;;;;;10.50;3.25;;;;;;;15.73;72.71;100920.75;5043223;28;20493;-91
2023/07/03 07:04:04;;;;;;;10.07;3.30;;;;;;;15.78;72.52;100919.63;5040669;28;20037;-91
2023/07/03 07:06:30;;;;;;;10.48;2.88;;;;;;;15.83;72.02;100922.03;5042477;28;20392;-92
2023/07/03 07:08:56;;;;;;;9.77;3.08;;;;;;;15.87;70.84;100918.38;5041514;28;20403;-93
2023/07/03 07:11:25;;;;;;;14.15;3.03;;;;;;;15.87;71.26;100918.38;5043316;28;20032;-93
2023/07/03 07:13:52;;;;;;;12.57;3.13;;;;;;;15.86;70.33;100924.56;5037730;28;20104;-92
2023/07/03 07:16:23;;;;;;;10.35;2.92;;;;;;;15.88;70.31;100935.81;5038253;28;20102;-91
2023/07/03 07:18:55;;;;;;;10.00;2.67;;;;;;;15.88;69.75;100930.59;5037902;28;20025;-95
2023/07/03 07:21:21;;;;;;;13.32;2.88;;;;;;;15.89;69.05;100936.66;5036329;28;20037;-94
2023/07/03 07:23:51;;;;;;;11.82;2.75;;;;;;;15.90;69.66;100936.56;5038358;28;20029;-93
2023/07/03 07:26:17;;;;;;;10.33;2.70;;;;;;;15.93;68.59;100940.84;5021437;28;20523;-93
2023/07/03 07:28:42;;;;;;;10.00;2.53;;;;;;;15.95;68.65;100943.38;5039348;28;20178;-93
2023/07/03 07:31:07;;;;;;;11.35;3.03;;;;;;;15.99;69.17;100943.16;5039213;28;20476;-90
2023/07/03 07:33:33;;;;;;;10.00;2.53;;;;;;;16.05;68.44;100944.69;5040917;28;20102;-92
2023/07/03 07:35:58;;;;;;;9.50;2.60;;;;;;;16.08;68.66;100947.13;5041053;28;20024;-92
2023/07/03 07:38:23;;;;;;;10.30;3.03;;;;;;;16.14;68.75;100951.28;5037536;28;20059;-93
2023/07/03 07:40:49;;;;;;;10.00;2.67;;;;;;;16.22;68.96;100951.75;5041095;28;20029;-93
2023/07/03 07:43:15;;;;;;;9.80;2.63;;;;;;;16.28;68.26;100954.09;5043097;28;20056;-91
2023/07/03 07:45:40;;;;;;;10.80;2.90;;;;;;;16.34;67.84;100950.31;5037425;28;20060;-91
2023/07/03 07:48:05;;;;;;;10.30;3.00;;;;;;;16.38;67.48;100950.06;5039787;28;20395;-91
2023/07/03 07:50:35;;;;;;;13.18;2.95;;;;;;;16.43;67.32;100941.13;5038672;28;20020;-91
2023/07/03 07:53:00;;;;;;;11.45;2.95;;;;;;;16.48;67.51;100955.72;5039547;28;20033;-92
2023/07/03 07:55:26;;;;;;;10.65;3.28;;;;;;;16.57;65.77;100949.19;5039541;28;20025;-93
2023/07/03 07:57:51;;;;;;;13.57;3.15;;;;;;;16.66;65.84;100953.13;5039302;28;20439;-93
2023/07/03 08:00:17;;;;;;;11.85;3.10;;;;;;;16.78;64.21;100946.41;5040853;28;20025;-91
2023/07/03 08:02:42;;;;;;;12.05;2.80;;;;;;;16.86;63.68;100943.41;5038935;28;20041;-92
2023/07/03 08:05:08;;;;;;;9.75;2.97;;;;;;;16.97;63.50;100943.72;5037664;28;20046;-92
2023/07/03 08:07:34;;;;;;;9.90;2.80;;;;;;;17.05;62.85;100938.94;5023289;28;20033;-89
2023/07/03 08:09:59;;;;;;;9.50;2.85;;;;;;;17.09;63.65;100943.09;5020585;28;20056;-93
2023/07/03 08:12:24;;;;;;;12.65;3.03;;;;;;;17.10;62.80;100942.16;5037284;28;20047;-91
2023/07/03 08:14:50;;;;;;;8.75;2.50;;;;;;;17.07;62.11;100947.59;5040149;28;20028;-89
2023/07/03 08:17:15;;;;;;;9.85;2.35;;;;;;;17.04;61.95;100947.75;5039749;28;20033;-92
2023/07/03 08:19:40;;;;;;;9.50;2.60;;;;;;;17.04;61.85;100946.88;5036334;28;20032;-91
2023/07/03 08:22:06;;;;;;;13.38;2.60;;;;;;;17.04;61.13;100947.75;5039551;28;20480;-92
2023/07/03 08:24:31;;;;;;;9.73;2.67;;;;;;;17.07;61.08;100957.25;5036125;28;20146;-91
2023/07/03 08:26:56;;;;;;;11.20;3.05;;;;;;;17.10;60.65;100965.81;5035610;28;20496;-90
2023/07/03 08:29:21;;;;;;;7.90;2.60;;;;;;;17.11;59.81;100964.06;5035968;28;20078;-90
2023/07/03 08:31:47;;;;;;;8.68;2.53;;;;;;;17.14;61.03;100954.22;5038301;28;20516;-91
2023/07/03 08:34:12;;;;;;;11.60;2.38;;;;;;;17.17;59.59;100963.72;5034281;28;20118;-91
2023/07/03 08:36:38;;;;;;;9.55;2.60;;;;;;;17.17;59.05;100957.63;5030132;28;20036;-90
2023/07/03 08:39:04;;;;;;;7.38;2.22;;;;;;;17.16;59.33;100953.28;5023932;28;20020;-92
2023/07/03 08:41:41;;;;;;;8.30;2.28;;;;;;;17.16;59.50;100955.94;5023712;28;20041;-93
2023/07/03 08:44:08;;;;;;;8.65;2.13;;;;;;;17.20;58.76;100963.56;5023770;28;20041;-91
2023/07/03 08:46:36;;;;;;;7.03;1.98;;;;;;;17.25;59.12;100965.97;5026781;28;20029;-92
2023/07/03 08:49:04;;;;;;;10.13;2.20;;;;;;;17.28;58.48;100976.31;5031617;28;20057;-93
2023/07/03 08:51:32;;;;;;;8.60;2.72;;;;;;;17.32;58.34;100983.13;5028229;28;20017;-91
2023/07/03 08:54:09;;;;;;;11.05;2.38;;;;;;;17.35;58.32;100985.59;5030611;28;20040;-90
2023/07/03 08:56:34;;;;;;;10.25;2.40;;;;;;;17.35;57.40;100987.34;5029534;28;20074;-88
2023/07/03 08:59:02;;;;;;;11.88;2.80;;;;;;;17.36;56.71;100979.41;5027995;28;20066;-89
2023/07/03 09:01:41;;;;;;;8.55;2.35;;;;;;;17.41;57.34;100997.56;5027435;28;20021;-88
2023/07/03 09:04:37;;;;;;;8.75;2.10;;;;;;;17.45;57.63;100994.69;5029414;28;20567;-92
2023/07/03 09:07:11;;;;;;;13.35;2.20;;;;;;;17.51;57.25;100992.69;5025181;28;20048;-91
2023/07/03 09:09:57;;;;;;;12.25;2.25;;;;;;;17.55;57.13;100984.53;5013356;28;20018;-92
2023/07/03 09:12:28;;;;;;;12.93;2.40;;;;;;;17.54;55.91;100988.09;5027551;28;20022;-90
2023/07/03 09:15:03;;;;;;;8.13;2.40;;;;;;;17.54;56.19;100990.72;5031012;28;20020;-91
2023/07/03 09:17:29;;;;;;;9.80;2.55;;;;;;;17.59;56.12;100987.88;5023734;28;20026;-91
2023/07/03 09:19:56;;;;;;;7.10;2.17;;;;;;;17.63;55.55;100975.41;5026621;28;20373;-93
2023/07/03 09:22:38;;;;;;;9.93;2.20;;;;;;;17.66;55.97;100980.50;5028153;28;20021;-94
2023/07/03 09:25:06;;;;;;;8.25;2.33;;;;;;;17.63;55.47;100984.13;5010080;28;20069;-91
2023/07/03 09:27:31;;;;;;;8.02;2.15;;;;;;;17.58;53.54;100988.81;5021037;28;20091;-90
2023/07/03 09:30:05;;;;;;;11.10;2.35;;;;;;;17.51;54.93;100982.16;5023746;28;20061;-93
2023/07/03 09:32:32;;;;;;;8.60;2.47;;;;;;;17.50;55.58;100988.34;5023985;28;20041;-91
2023/07/03 09:35:15;;;;;;;9.38;2.38;;;;;;;17.52;56.44;100989.13;5027059;28;20022;-93
2023/07/03 09:37:45;;;;;;;7.95;2.28;;;;;;;17.50;56.49;100990.97;5021630;28;22370;-92
2023/07/03 09:40:21;;;;;;;8.10;1.98;;;;;;;17.52;57.18;100992.59;5026795;28;20021;-94
2023/07/03 09:42:47;;;;;;;10.95;2.38;;;;;;;17.52;56.56;100989.13;5028710;28;20048;-94
2023/07/03 09:45:19;;;;;;;11.65;2.22;;;;;;;17.54;56.65;100997.78;5027351;28;20430;-85
2023/07/03 09:47:52;;;;;;;9.70;2.17;;;;;;;17.55;57.21;100986.34;5033734;28;20025;-92
2023/07/03 09:50:26;;;;;;;9.48;2.40;;;;;;;17.59;56.70;100987.88;5030829;28;20041;-94
2023/07/03 09:52:55;;;;;;;9.35;2.40;;;;;;;17.60;57.07;100993.03;5032328;28;20017;-89
2023/07/03 09:55:21;;;;;;;8.30;2.38;;;;;;;17.61;56.60;100986.00;5936724;23;20057;-95
2023/07/03 09:57:46;;;;;;;8.30;2.58;;;;;;;17.60;56.08;100997.44;5020769;28;21342;-96
2023/07/03 10:00:17;;;;;;;6.63;2.28;;;;;;;17.59;56.90;100995.78;5022271;28;20022;-95
2023/07/03 10:02:45;;;;;;;9.45;2.60;;;;;;;17.58;57.18;100994.06;5077951;22;20081;-93
2023/07/03 10:20:45;;;;;;;9.10;2.97;;;;;;;18.19;56.93;100999.59;5468528;22;20054;-93
2023/07/03 10:23:25;;;;;;;12.00;3.00;;;;;;;18.27;53.96;100992.13;4997842;28;20100;-93
2023/07/03 10:26:09;;;;;;;9.82;2.80;;;;;;;18.35;55.52;100989.91;5006067;28;20552;-93
2023/07/03 10:28:43;;;;;;;10.93;3.13;;;;;;;18.43;54.44;100993.91;4995250;28;20026;-93
2023/07/03 10:31:15;;;;;;;9.32;3.00;;;;;;;18.41;53.24;100993.97;4995063;28;20091;-93
2023/07/03 10:33:46;;;;;;;12.20;3.33;;;;;;;18.37;53.13;100996.88;4989746;28;20038;-94
2023/07/03 10:53:05;;;;;;;8.25;2.78;;;;;;;18.08;54.42;100975.66;5119804;22;20053;-94
2023/07/03 10:56:10;;;;;;;;;;;;;;;;;;;;;
2023/07/03 10:59:02;;;;;;;8.00;2.60;;;;;;;18.43;53.80;100980.72;5017921;28;20432;-92
2023/07/03 11:01:48;;;;;;;12.88;2.42;;;;;;;18.51;52.67;100986.41;4974107;28;20095;-93
2023/07/03 11:04:19;;;;;;;7.18;2.30;;;;;;;18.52;51.30;100979.34;5019365;28;20057;-92
2023/07/03 11:06:51;;;;;;;;;;;;;;;18.56;53.67;100986.13;5013612;28;20124;-92
2023/07/03 11:09:23;;;;;;;9.40;2.40;;;;;;;18.54;50.38;100993.25;5012049;28;19967;-93
2023/07/03 11:11:52;;;;;;;9.93;2.53;;;;;;;18.59;50.40;100999.13;5012397;28;20040;-92
2023/07/03 11:14:33;;;;;;;11.82;2.20;;;;;;;18.65;49.28;100988.25;5010394;28;20052;-91
2023/07/03 11:17:50;;;;;;;6.25;1.85;;;;;;;18.77;50.26;100998.06;5011370;28;20052;-90
2023/07/03 11:20:50;;;;;;;10.00;1.90;;;;;;;18.84;48.98;100990.66;5027322;28;20013;-96
2023/07/03 11:23:30;;;;;;;5.53;1.60;;;;;;;18.88;47.74;100981.63;5012931;28;20041;-93
2023/07/03 11:26:24;;;;;;;6.47;1.58;;;;;;;19.03;47.44;100979.06;5012937;28;20116;-93
2023/07/03 11:28:53;;;;;;;8.57;1.65;;;;;;;19.19;43.65;100990.41;5006386;28;20053;-92
2023/07/03 11:31:18;;;;;;;8.45;1.50;;;;;;;19.23;43.36;100978.72;5005662;28;20022;-93
2023/07/03 11:33:45;;;;;;;7.15;1.50;;;;;;;19.25;44.14;100990.03;5010434;28;20064;-92
2023/07/03 11:36:34;;;;;;;5.55;1.73;;;;;;;19.28;46.23;100983.72;5016750;28;20017;-93
2023/07/03 11:39:19;;;;;;;5.75;2.13;;;;;;;19.30;46.40;100986.28;5022261;28;20045;-91
2023/07/03 11:41:48;;;;;;;7.28;2.10;;;;;;;19.33;44.03;100986.06;5019543;28;20044;-94
2023/07/03 11:44:38;;;;;;;5.32;1.58;;;;;;;19.35;45.43;100992.09;5427520;22;20021;-92
2023/07/03 11:47:25;;;;;;;6.90;2.28;;;;;;;19.34;44.08;100993.03;5004443;28;20064;-94
2023/07/03 11:52:55;;;;;;;6.07;2.03;;;;;;;19.20;44.54;100997.38;5255270;22;20053;-96
2023/07/03 11:57:59;;;;;;;6.93;1.92;;;;;;;19.11;45.51;100998.75;5264642;22;20049;-94
2023/07/03 12:00:46;;;;;;;7.47;2.00;;;;;;;19.16;46.13;100995.84;5039606;28;20037;-95
2023/07/03 12:03:14;;;;;;;4.40;1.85;;;;;;;19.27;45.50;100992.56;5029260;28;20045;-94
2023/07/03 12:08:38;;;;;;;9.48;2.25;;;;;;;19.33;46.29;100992.22;5203300;22;20042;-94